Todos
Tyagarah Airport (Tyagarah, New South Wales) YTYH Condições meteorológicas
There is no TAF data available at YTYH. Showing TAF data for YBNA (17 mi S).
BNK Previsão da área de terminais (sem dados para YTYH)
| Date | Time (AEST) | Flight Rules | Wind Dir. | Speed | Type | Height AGL (ft) | Visibility | Remarks | ||||||
|---|---|---|---|---|---|---|---|---|---|---|---|---|---|---|
| 05-Set | 03:00 | BCAT1 | 270° | 5 kt | Scattered | 800 | 300 meters. | Fog. (30% chance) | ||||||
| 05-Set | 02:00 | BCAT1 | 270° | 5 kt | Scattered | 800 | 300 meters. | Fog. (30% chance) | ||||||
| 05-Set | 01:00 | BCAT1 | 270° | 5 kt | Scattered | 800 | 300 meters. | Fog. (30% chance) | ||||||
| 05-Set | 00:00 | BCAT1 | 270° | 5 kt | Scattered | 800 | 300 meters. | Fog. (30% chance) | ||||||
| 04-Set | 23:00 | BCAT1 | 270° | 5 kt | Scattered | 800 | 300 meters. | Fog. (30% chance) | ||||||
| 04-Set | 22:00 | VFR | 270° | 5 kt | Scattered | 800 | >= 6 miles | |||||||
| 04-Set | 21:00 | VFR | 150° | 7 kt | Scattered | 1.000 | >= 6 miles | |||||||
| 04-Set | 20:00 | VFR | 150° | 7 kt | Scattered | 1.000 | >= 6 miles | |||||||
| 04-Set | 19:00 | VFR | 150° | 7 kt | Scattered | 1.000 | >= 6 miles | |||||||
| 04-Set | 18:00 | VFR | 150° | 7 kt | Scattered | 1.000 | >= 6 miles | |||||||
| 04-Set | 17:00 | VFR | 160° | 12 kt | Clouds and Visibility are OK | >= 6 miles | ||||||||
There is no METAR data available at YTYH. Showing METAR data for YBNA (17 mi S).
Histórico recente de METAR BNK (sem dados para YTYH)
| Date | Time (AEST) | Flight Rules | Wind Dir. | Speed | Type | Height AGL (ft) | Visibility | Temp (°C) | Temp (°F) | Dew Point (°C) | Dew Point (°F) | Rel. Humid. | Pressure | Density Altitude | Remarks |
|---|---|---|---|---|---|---|---|---|---|---|---|---|---|---|---|
| 04-Set | 17:00 | VFR | 150° | 7 kt | 10000 meters | 21° | 69° | 18° | 64° | 83% | 1018 mb | 585 ft | |||
| 04-Set | 16:30 | VFR | 150° | 8 kt | 10000 meters | 22° | 71° | 18° | 64° | 78% | 1018 mb | 705 ft | |||
| 04-Set | 16:00 | VFR | 160° | 7 kt | 10000 meters | 23° | 73° | 18° | 64° | 73% | 1018 mb | 825 ft | |||
| 04-Set | 15:30 | VFR | 170° | 10 kt | 10000 meters | 22° | 71° | 18° | 64° | 78% | 1017 mb | 735 ft | |||
| 04-Set | 15:00 | VFR | 170° | 10 kt | 10000 meters | 23° | 73° | 18° | 64° | 73% | 1017 mb | 855 ft | |||
| 04-Set | 14:30 | VFR | 170° | 11 kt | 10000 meters | 23° | 73° | 18° | 64° | 73% | 1017 mb | 855 ft | |||
| 04-Set | 14:00 | VFR | 170° | 12 kt | 10000 meters | 23° | 73° | 18° | 64° | 73% | 1018 mb | 825 ft | |||
| 04-Set | 13:30 | VFR | 170° | 12 kt | 10000 meters | 23° | 73° | 18° | 64° | 73% | 1018 mb | 825 ft | |||
| 04-Set | 13:00 | VFR | 180° | 11 kt | 10000 meters | 24° | 75° | 17° | 62° | 65% | 1019 mb | 916 ft | |||
| 04-Set | 12:30 | VFR | 180° | 12 kt | 10000 meters | 24° | 75° | 17° | 62° | 65% | 1019 mb | 916 ft | |||
| 04-Set | 12:00 | VFR | 190° | 13 kt | 10000 meters | 24° | 75° | 17° | 62° | 65% | 1019 mb | 916 ft | |||
| 04-Set | 11:30 | VFR | 180° | 11 kt | 10000 meters | 25° | 77° | 17° | 62° | 61% | 1020 mb | 1.006 ft | |||
| 04-Set | 11:00 | VFR | 180° | 10 kt | 10000 meters | 25° | 77° | 18° | 64° | 65% | 1020 mb | 1.006 ft | |||
| 04-Set | 10:30 | VFR | 190° | 11 kt | 10000 meters | 25° | 77° | 18° | 64° | 65% | 1020 mb | 1.006 ft | |||
| 04-Set | 10:00 | VFR | 200° | 11 kt | 10000 meters | 24° | 75° | 18° | 64° | 69% | 1020 mb | 886 ft | |||
| 04-Set | 09:30 | VFR | 210° | 10 kt | 10000 meters | 24° | 75° | 17° | 62° | 65% | 1020 mb | 886 ft | |||
| 04-Set | 09:00 | VFR | 200° | 9 kt | 10000 meters | 24° | 75° | 17° | 62° | 65% | 1021 mb | 857 ft | |||
| 04-Set | 08:30 | VFR | 210° | 7 kt | 10000 meters | 23° | 73° | 18° | 64° | 73% | 1020 mb | 766 ft | |||
| 04-Set | 08:00 | VFR | 240° | 5 kt | 10000 meters | 21° | 69° | 17° | 62° | 78% | 1020 mb | 526 ft | |||
| 04-Set | 07:30 | VFR | 250° | 4 kt | 10000 meters | 19° | 66° | 18° | 64° | 94% | 1020 mb | 286 ft | |||
| 04-Set | 07:00 | VFR | 250° | 1 kt | 10000 meters | 16° | 60° | 16° | 60° | 100% | 1019 mb | -44 ft | |||
| 04-Set | 06:30 | VFR | Calm | 10000 meters | 13° | 55° | 13° | 55° | 100% | 1019 mb | -404 ft | ||||
| 04-Set | 06:00 | VFR | Calm | 10000 meters | 13° | 55° | 12° | 53° | 94% | 1019 mb | -404 ft | ||||
| 04-Set | 05:30 | VFR | Calm | 10000 meters | 12° | 53° | 12° | 53° | 100% | 1018 mb | -495 ft |
Entrar
| Seu navegador não suporta. atualize seu navegador |
